createdAt,value
2023-02-22T00:00:52.925Z,14.73
2023-02-22T00:10:57.144Z,14.20
2023-02-22T00:21:01.909Z,15.40
2023-02-22T00:31:07.199Z,15.98
2023-02-22T00:41:10.150Z,15.40
2023-02-22T00:51:14.340Z,16.13
2023-02-22T01:01:17.755Z,15.80
2023-02-22T01:11:22.234Z,15.00
2023-02-22T01:21:24.841Z,14.52
2023-02-22T01:31:28.871Z,14.60
2023-02-22T01:41:31.586Z,14.88
2023-02-22T01:51:39.145Z,16.25
2023-02-22T02:01:44.519Z,14.93
2023-02-22T02:11:50.837Z,15.05
2023-02-22T02:22:15.786Z,16.10
2023-02-22T02:32:28.986Z,15.60
2023-02-22T02:42:38.050Z,15.02
2023-02-22T02:52:43.220Z,14.10
2023-02-22T03:02:58.827Z,14.27
2023-02-22T03:13:11.642Z,13.68
2023-02-22T03:23:25.140Z,13.45
2023-02-22T03:33:36.238Z,12.45
2023-02-22T03:43:41.102Z,13.90
2023-02-22T03:53:45.582Z,13.02
2023-02-22T04:03:48.313Z,13.70
2023-02-22T04:13:54.678Z,14.10
2023-02-22T04:23:57.265Z,12.95
2023-02-22T04:34:01.248Z,14.57
2023-02-22T04:44:04.085Z,12.98
2023-02-22T04:54:08.152Z,14.25
2023-02-22T05:04:10.750Z,13.13
2023-02-22T05:14:14.705Z,12.95
2023-02-22T05:24:17.903Z,11.55
2023-02-22T05:34:21.915Z,10.63
2023-02-22T05:44:24.531Z,10.35
2023-02-22T05:54:28.701Z,11.07
2023-02-22T06:04:31.497Z,9.43
2023-02-22T06:14:35.869Z,9.70
2023-02-22T06:24:40.178Z,9.35
2023-02-22T06:34:44.131Z,9.32
2023-02-22T06:44:46.728Z,9.68
2023-02-22T06:54:51.125Z,9.30
2023-02-22T07:04:53.764Z,9.35
2023-02-22T07:14:57.735Z,9.45
2023-02-22T07:25:01.092Z,8.75
2023-02-22T07:35:05.133Z,9.63
2023-02-22T07:45:08.392Z,10.43
2023-02-22T07:55:12.484Z,9.70
2023-02-22T08:05:15.686Z,9.82
2023-02-22T08:15:22.347Z,10.40
2023-02-22T08:25:27.004Z,12.02
2023-02-22T08:35:32.641Z,12.38
2023-02-22T08:45:35.315Z,11.65
2023-02-22T08:55:41.725Z,14.02
2023-02-22T09:05:45.108Z,15.07
2023-02-22T09:15:49.132Z,13.82
2023-02-22T09:25:51.888Z,14.45
2023-02-22T09:35:55.880Z,14.95
2023-02-22T09:46:20.252Z,13.18
2023-02-22T09:56:26.686Z,13.18
2023-02-22T10:06:29.636Z,13.77
2023-02-22T10:16:39.557Z,15.68
2023-02-22T10:26:44.070Z,16.27
2023-02-22T10:36:50.899Z,17.33
2023-02-22T10:46:55.338Z,16.00
2023-02-22T10:57:00.105Z,17.05
2023-02-22T11:07:11.118Z,17.10
2023-02-22T11:17:20.228Z,16.10
2023-02-22T11:27:28.270Z,18.90
2023-02-22T11:37:36.368Z,20.38
2023-02-22T11:47:49.138Z,19.05
2023-02-22T11:58:06.946Z,19.40
2023-02-22T12:08:21.674Z,18.80
2023-02-22T12:18:34.557Z,17.42
2023-02-22T12:28:40.147Z,17.92
2023-02-22T12:38:48.302Z,18.42
2023-02-22T12:48:56.685Z,19.90
2023-02-22T12:59:08.306Z,19.67
2023-02-22T13:09:38.514Z,19.30
2023-02-22T13:19:48.170Z,20.58
2023-02-22T13:29:57.761Z,20.23
2023-02-22T13:40:26.795Z,16.07
2023-02-22T13:50:42.966Z,15.63
2023-02-22T14:00:49.240Z,16.00
2023-02-22T14:10:55.011Z,16.05
2023-02-22T14:21:08.920Z,16.25
2023-02-22T14:31:29.414Z,15.30
2023-02-22T14:41:34.575Z,16.13
2023-02-22T14:51:43.186Z,17.02
2023-02-22T15:01:58.694Z,17.00
2023-02-22T15:12:14.058Z,16.02
2023-02-22T15:22:22.759Z,15.00
2023-02-22T15:32:32.097Z,16.00
2023-02-22T15:42:44.357Z,15.93
2023-02-22T15:52:52.998Z,14.38
2023-02-22T16:02:58.881Z,14.70
2023-02-22T16:13:19.085Z,15.68
2023-02-22T16:23:33.061Z,16.83
2023-02-22T16:33:35.887Z,15.05
2023-02-22T16:43:40.401Z,15.98
2023-02-22T16:53:44.447Z,18.80
2023-02-22T17:03:48.465Z,17.23
2023-02-22T17:13:51.967Z,18.75
2023-02-22T17:23:55.897Z,18.02
2023-02-22T17:34:02.785Z,17.33
2023-02-22T17:44:06.898Z,16.60
2023-02-22T17:54:10.533Z,19.55
2023-02-22T18:04:14.577Z,18.20
2023-02-22T18:14:17.174Z,18.40
2023-02-22T18:24:21.179Z,17.98
2023-02-22T18:34:25.019Z,18.30
2023-02-22T18:44:29.071Z,17.65
2023-02-22T18:54:31.661Z,20.63
2023-02-22T19:04:35.778Z,19.90
2023-02-22T19:14:39.530Z,18.67
2023-02-22T19:24:43.689Z,21.55
2023-02-22T19:34:46.924Z,18.77
2023-02-22T19:44:52.541Z,20.10
2023-02-22T19:54:55.232Z,23.15
2023-02-22T20:04:59.227Z,18.88
2023-02-22T20:15:03.077Z,19.63
2023-02-22T20:25:07.484Z,20.95
2023-02-22T20:35:10.154Z,18.73
2023-02-22T20:45:16.112Z,19.33
2023-02-22T20:55:18.985Z,16.33
2023-02-22T21:05:22.969Z,15.70
2023-02-22T21:15:25.888Z,16.27
2023-02-22T21:25:31.495Z,15.52
2023-02-22T21:35:36.823Z,17.60
2023-02-22T21:45:40.935Z,16.42
2023-02-22T21:55:44.115Z,17.30
2023-02-22T22:05:48.613Z,17.42
2023-02-22T22:15:51.370Z,17.10
2023-02-22T22:26:02.108Z,16.15
2023-02-22T22:36:05.872Z,17.35
2023-02-22T22:46:10.182Z,18.13
2023-02-22T22:56:15.778Z,18.15
2023-02-22T23:06:19.743Z,18.67
2023-02-22T23:16:23.060Z,18.35
2023-02-22T23:26:27.495Z,19.95
2023-02-22T23:36:30.124Z,17.50
2023-02-22T23:46:34.203Z,18.20
2023-02-22T23:56:40.030Z,16.02
